createdAt,value
2022-12-08T05:01:02.998Z,97.31
2022-12-08T05:05:14.553Z,96.85
2022-12-08T05:09:26.023Z,97.36
2022-12-08T05:13:37.711Z,97.49
2022-12-08T05:17:49.149Z,96.92
2022-12-08T05:22:00.789Z,97.49
2022-12-08T05:26:12.224Z,97.44
2022-12-08T05:30:23.700Z,97.54
2022-12-08T05:34:35.213Z,97.47
2022-12-08T05:38:46.747Z,97.39
2022-12-08T05:42:58.231Z,97.22
2022-12-08T05:47:09.724Z,97.21
2022-12-08T05:51:23.973Z,96.87
2022-12-08T05:55:35.420Z,97.00
2022-12-08T05:59:46.896Z,97.26
2022-12-08T06:04:00.977Z,97.77
2022-12-08T06:08:13.128Z,98.05
2022-12-08T06:12:24.766Z,97.63
2022-12-08T06:16:36.362Z,97.42
2022-12-08T06:20:48.152Z,97.79
2022-12-08T06:24:59.604Z,96.99
2022-12-08T06:29:11.049Z,97.64
2022-12-08T06:33:22.692Z,97.47
2022-12-08T06:37:34.386Z,97.51
2022-12-08T06:42:04.612Z,97.41
2022-12-08T06:46:18.780Z,97.10
2022-12-08T06:50:30.438Z,97.25
2022-12-08T06:54:41.892Z,97.24
2022-12-08T06:58:53.477Z,97.86
2022-12-08T07:03:04.944Z,98.08
2022-12-08T07:07:16.421Z,97.41
2022-12-08T07:11:27.924Z,97.94
2022-12-08T07:15:39.358Z,97.94
2022-12-08T07:19:51.402Z,98.12
2022-12-08T07:24:02.896Z,98.16
2022-12-08T07:28:14.486Z,98.17
2022-12-08T07:32:25.991Z,97.61
2022-12-08T07:36:37.480Z,97.13
2022-12-08T07:40:48.924Z,97.51
2022-12-08T07:45:00.780Z,98.17
2022-12-08T07:49:13.569Z,97.67
2022-12-08T07:53:25.020Z,97.49
2022-12-08T07:57:36.536Z,97.12
2022-12-08T08:02:01.009Z,97.79
2022-12-08T08:06:19.789Z,97.57
2022-12-08T08:10:31.338Z,97.98
2022-12-08T08:14:42.849Z,98.09
2022-12-08T08:18:54.440Z,98.06
2022-12-08T08:23:05.853Z,98.04
2022-12-08T08:27:17.331Z,98.11
2022-12-08T08:31:28.826Z,98.12
2022-12-08T08:35:40.792Z,97.91
2022-12-08T08:39:52.253Z,98.07
2022-12-08T08:44:04.255Z,97.58
2022-12-08T08:48:15.675Z,97.89
2022-12-08T08:52:27.213Z,97.90
2022-12-08T08:56:38.681Z,98.09
2022-12-08T09:00:50.137Z,97.82
2022-12-08T09:05:01.720Z,97.58
2022-12-08T09:09:13.457Z,97.40
2022-12-08T09:13:24.973Z,97.49
2022-12-08T09:17:36.456Z,96.99
2022-12-08T09:21:47.881Z,96.71
2022-12-08T09:25:59.353Z,96.63
2022-12-08T09:30:10.974Z,96.87
2022-12-08T09:34:22.426Z,96.52
2022-12-08T09:38:33.991Z,96.76
2022-12-08T09:43:03.726Z,96.46
2022-12-08T09:47:35.536Z,95.59
2022-12-08T09:51:48.035Z,95.40
2022-12-08T09:56:35.680Z,94.86
2022-12-08T10:00:47.369Z,95.23
2022-12-08T10:04:59.321Z,94.85
2022-12-08T10:09:38.703Z,94.38
2022-12-08T10:14:20.365Z,93.59
2022-12-08T10:18:33.438Z,92.56
2022-12-08T10:22:47.188Z,92.82
2022-12-08T10:26:59.228Z,93.42
2022-12-08T10:31:19.009Z,91.94
2022-12-08T10:35:50.395Z,91.79
2022-12-08T10:40:13.304Z,91.59
2022-12-08T10:44:24.818Z,91.46
2022-12-08T10:48:36.303Z,91.88
2022-12-08T10:52:59.802Z,90.19
2022-12-08T10:57:20.784Z,90.62
2022-12-08T11:01:38.922Z,90.70
2022-12-08T11:05:50.643Z,89.70
2022-12-08T11:10:02.516Z,89.04
2022-12-08T11:14:43.643Z,87.92
2022-12-08T11:18:57.532Z,87.36
2022-12-08T11:23:22.101Z,86.42
2022-12-08T11:27:45.603Z,86.61
2022-12-08T11:32:01.341Z,86.70
2022-12-08T11:36:15.469Z,85.71
2022-12-08T11:40:35.592Z,84.50
2022-12-08T11:44:47.026Z,84.03
2022-12-08T11:49:06.915Z,83.95
2022-12-08T11:53:29.178Z,84.03
2022-12-08T11:57:40.746Z,83.03
2022-12-08T12:01:52.360Z,82.20
2022-12-08T12:06:54.352Z,80.79
2022-12-08T12:11:41.841Z,80.77
2022-12-08T12:16:26.361Z,78.56
2022-12-08T12:20:58.315Z,80.50
2022-12-08T12:25:18.971Z,80.54
2022-12-08T12:29:35.593Z,80.55
2022-12-08T12:33:47.525Z,79.93
2022-12-08T12:38:25.741Z,79.27
2022-12-08T12:42:49.039Z,79.37
2022-12-08T12:47:03.112Z,79.78
2022-12-08T12:51:41.665Z,79.80
2022-12-08T12:56:00.485Z,79.70
2022-12-08T13:00:19.804Z,80.19
2022-12-08T13:04:35.831Z,80.35
2022-12-08T13:08:53.049Z,80.15
2022-12-08T13:13:16.729Z,80.15
2022-12-08T13:17:36.145Z,80.67
2022-12-08T13:21:47.709Z,80.57
2022-12-08T13:26:20.610Z,80.21
2022-12-08T13:30:58.411Z,80.92
2022-12-08T13:35:11.761Z,81.23
2022-12-08T13:39:32.229Z,81.09
2022-12-08T13:44:57.115Z,81.31
2022-12-08T13:54:24.788Z,80.94
2022-12-08T13:58:05.432Z,81.32
2022-12-08T14:02:23.051Z,81.87
2022-12-08T14:06:42.453Z,82.12
2022-12-08T14:11:02.127Z,81.89
2022-12-08T14:15:15.705Z,81.77
2022-12-08T14:19:30.496Z,81.35
2022-12-08T14:23:44.459Z,81.41
2022-12-08T14:28:01.062Z,80.18
2022-12-08T14:32:25.550Z,81.14
2022-12-08T14:36:37.159Z,81.66
2022-12-08T14:40:59.881Z,81.44
2022-12-08T14:45:14.141Z,81.36
2022-12-08T14:49:34.078Z,81.25
2022-12-08T14:53:52.991Z,81.67
2022-12-08T14:58:04.871Z,81.74
2022-12-08T15:02:16.276Z,81.70
2022-12-08T15:06:27.766Z,82.61
2022-12-08T15:10:39.941Z,83.04
2022-12-08T15:15:15.127Z,82.77
2022-12-08T15:19:30.133Z,83.26
2022-12-08T15:23:48.630Z,83.54
2022-12-08T15:28:02.485Z,83.82
2022-12-08T15:32:18.100Z,83.77
2022-12-08T15:36:29.534Z,84.43
2022-12-08T15:40:40.946Z,84.88
2022-12-08T15:44:52.372Z,84.68
2022-12-08T15:49:03.790Z,84.91
2022-12-08T15:53:15.667Z,85.26
2022-12-08T15:58:04.426Z,85.75
2022-12-08T16:02:01.935Z,85.46
2022-12-08T16:07:04.809Z,85.84
2022-12-08T16:15:49.936Z,85.91
2022-12-08T16:19:54.716Z,85.59
2022-12-08T16:24:09.367Z,86.19
2022-12-08T16:28:52.945Z,86.56
2022-12-08T16:32:52.737Z,86.64
2022-12-08T16:37:04.250Z,87.09
2022-12-08T16:41:35.886Z,87.42
2022-12-08T16:45:47.567Z,86.95
2022-12-08T16:49:59.126Z,86.94
2022-12-08T16:54:10.887Z,87.44
2022-12-08T16:58:22.318Z,87.68
2022-12-08T17:02:34.044Z,87.47
2022-12-08T17:06:45.566Z,86.76
2022-12-08T17:11:07.543Z,87.70
2022-12-08T17:15:22.128Z,86.84
2022-12-08T17:19:33.871Z,87.11
2022-12-08T17:23:46.098Z,87.36
2022-12-08T17:27:57.545Z,87.97
2022-12-08T17:32:09.047Z,88.12
2022-12-08T17:36:21.826Z,87.97
2022-12-08T17:40:33.357Z,87.87
2022-12-08T17:44:46.783Z,87.52
2022-12-08T17:48:58.303Z,87.98
2022-12-08T17:53:11.570Z,87.68
2022-12-08T17:57:23.065Z,88.04
2022-12-08T18:01:35.072Z,88.68
2022-12-08T18:05:46.699Z,89.51
2022-12-08T18:09:58.132Z,90.16
2022-12-08T18:14:10.726Z,90.09
2022-12-08T18:18:22.645Z,89.83
2022-12-08T18:22:34.329Z,89.52
2022-12-08T18:26:45.953Z,89.13
2022-12-08T18:30:57.413Z,88.82
2022-12-08T18:35:09.205Z,89.30
2022-12-08T18:39:23.806Z,89.11
2022-12-08T18:43:35.847Z,89.04
2022-12-08T18:47:49.587Z,89.42
2022-12-08T18:52:01.005Z,89.59
2022-12-08T18:56:30.077Z,89.88
2022-12-08T19:00:41.516Z,89.55
2022-12-08T19:04:55.773Z,89.79
2022-12-08T19:09:08.763Z,90.15
2022-12-08T19:13:20.168Z,90.06
2022-12-08T19:17:31.645Z,90.08
2022-12-08T19:21:46.529Z,89.50
2022-12-08T19:25:58.283Z,89.94
2022-12-08T19:30:10.434Z,89.77
2022-12-08T19:34:21.956Z,89.70
2022-12-08T19:38:54.224Z,89.79
2022-12-08T19:43:24.393Z,90.59
2022-12-08T19:47:35.954Z,90.77
2022-12-08T19:51:47.429Z,90.96
2022-12-08T19:55:59.124Z,91.25
2022-12-08T20:00:12.861Z,90.71
2022-12-08T20:04:26.125Z,91.45
2022-12-08T20:08:37.596Z,91.28
2022-12-08T20:12:49.123Z,91.50
2022-12-08T20:17:00.596Z,91.96
2022-12-08T20:21:12.283Z,91.76
2022-12-08T20:25:23.792Z,92.32
2022-12-08T20:29:35.751Z,92.26
2022-12-08T20:33:48.115Z,92.70
2022-12-08T20:37:59.550Z,92.81
2022-12-08T20:42:14.086Z,92.47
2022-12-08T20:46:25.739Z,92.49
2022-12-08T20:50:37.580Z,93.00
2022-12-08T20:54:49.036Z,92.90
2022-12-08T20:59:00.718Z,93.10
2022-12-08T21:03:13.612Z,93.40
2022-12-08T21:07:25.258Z,93.18
2022-12-08T21:11:37.145Z,93.00
2022-12-08T21:15:48.735Z,93.08
2022-12-08T21:20:00.279Z,93.34
2022-12-08T21:24:11.850Z,93.13
2022-12-08T21:28:23.434Z,93.54
2022-12-08T21:32:35.261Z,93.29
2022-12-08T21:36:46.945Z,93.29
2022-12-08T21:41:05.971Z,93.35
2022-12-08T21:45:19.489Z,93.55
2022-12-08T21:49:31.137Z,93.28
2022-12-08T21:53:43.644Z,93.67
2022-12-08T21:57:57.235Z,93.95
2022-12-08T22:02:15.580Z,94.10
2022-12-08T22:06:30.429Z,93.71
2022-12-08T22:10:47.960Z,93.75
2022-12-08T22:14:59.877Z,93.85
2022-12-08T22:19:12.279Z,94.24
2022-12-08T22:23:24.630Z,93.78
2022-12-08T22:27:36.611Z,93.44
